Terminal Aerodrome Forecast
Issued by NWS

Home | Current Version | Previous Version | Graphics & Text | Print | Product List | Glossary Off
Versions: 1 2 3 4 5 6 7 8 9 10 11 12 13 14 15 16 17 18 19 20 21

000
FTUS43 KABR 062118 AAA
TAFATY
TAF AMD
KATY 062118Z 0621/0718 15015G25KT P6SM BKN015
     FM070500 16011G18KT 4SM -SHRA OVC025
     FM071100 19008KT 3SM BR OVC010
     FM071500 23009KT P6SM OVC015=

USA.gov is the U.S. government's official web portal to all federal, state and local government web resources and services.